sensor_id;sensor_type;location;lat;lon;timestamp;P1;durP1;ratioP1;P2;durP2;ratioP2
51810;SDS011;52468;40.116;18.296;2023-03-19T00:02:18;43.70;;;32.27;;
51810;SDS011;52468;40.116;18.296;2023-03-19T00:04:46;47.33;;;29.23;;
51810;SDS011;52468;40.116;18.296;2023-03-19T00:07:15;44.73;;;31.57;;
51810;SDS011;52468;40.116;18.296;2023-03-19T00:09:44;46.83;;;28.00;;
51810;SDS011;52468;40.116;18.296;2023-03-19T00:12:14;40.33;;;29.60;;
51810;SDS011;52468;40.116;18.296;2023-03-19T00:14:42;39.23;;;27.93;;
51810;SDS011;52468;40.116;18.296;2023-03-19T00:17:10;42.77;;;27.73;;
51810;SDS011;52468;40.116;18.296;2023-03-19T00:19:38;43.07;;;27.43;;
51810;SDS011;52468;40.116;18.296;2023-03-19T00:22:07;45.20;;;26.63;;
51810;SDS011;52468;40.116;18.296;2023-03-19T00:24:34;39.50;;;28.37;;
51810;SDS011;52468;40.116;18.296;2023-03-19T00:27:02;39.97;;;27.40;;
51810;SDS011;52468;40.116;18.296;2023-03-19T00:29:30;36.00;;;25.07;;
51810;SDS011;52468;40.116;18.296;2023-03-19T00:31:58;36.30;;;22.10;;
51810;SDS011;52468;40.116;18.296;2023-03-19T00:34:26;32.57;;;21.73;;
51810;SDS011;52468;40.116;18.296;2023-03-19T00:36:54;34.47;;;21.97;;
51810;SDS011;52468;40.116;18.296;2023-03-19T00:39:22;32.60;;;21.40;;
51810;SDS011;52468;40.116;18.296;2023-03-19T00:41:50;29.70;;;21.13;;
51810;SDS011;52468;40.116;18.296;2023-03-19T00:44:18;34.47;;;23.07;;
51810;SDS011;52468;40.116;18.296;2023-03-19T00:46:46;33.23;;;22.60;;
51810;SDS011;52468;40.116;18.296;2023-03-19T00:49:14;31.27;;;21.80;;
51810;SDS011;52468;40.116;18.296;2023-03-19T00:51:42;31.93;;;22.70;;
51810;SDS011;52468;40.116;18.296;2023-03-19T00:54:10;37.77;;;22.50;;
51810;SDS011;52468;40.116;18.296;2023-03-19T00:56:38;31.17;;;23.67;;
51810;SDS011;52468;40.116;18.296;2023-03-19T00:59:07;27.27;;;20.60;;
51810;SDS011;52468;40.116;18.296;2023-03-19T01:01:34;30.47;;;21.07;;
51810;SDS011;52468;40.116;18.296;2023-03-19T01:04:02;36.83;;;21.83;;
51810;SDS011;52468;40.116;18.296;2023-03-19T01:06:31;33.00;;;23.77;;
51810;SDS011;52468;40.116;18.296;2023-03-19T01:08:59;35.60;;;22.87;;
51810;SDS011;52468;40.116;18.296;2023-03-19T01:11:27;33.30;;;21.20;;
51810;SDS011;52468;40.116;18.296;2023-03-19T01:13:55;39.20;;;24.87;;
51810;SDS011;52468;40.116;18.296;2023-03-19T01:16:23;31.97;;;21.07;;
51810;SDS011;52468;40.116;18.296;2023-03-19T01:18:52;35.03;;;21.23;;
51810;SDS011;52468;40.116;18.296;2023-03-19T01:21:20;31.37;;;21.47;;
51810;SDS011;52468;40.116;18.296;2023-03-19T01:23:49;28.93;;;18.57;;
51810;SDS011;52468;40.116;18.296;2023-03-19T01:26:22;33.58;;;19.73;;
51810;SDS011;52468;40.116;18.296;2023-03-19T01:28:54;29.27;;;19.67;;
51810;SDS011;52468;40.116;18.296;2023-03-19T01:31:24;30.37;;;19.47;;
51810;SDS011;52468;40.116;18.296;2023-03-19T01:34:10;24.03;;;18.47;;
51810;SDS011;52468;40.116;18.296;2023-03-19T01:36:52;27.43;;;18.53;;
51810;SDS011;52468;40.116;18.296;2023-03-19T01:39:29;26.33;;;17.77;;
51810;SDS011;52468;40.116;18.296;2023-03-19T01:41:59;26.13;;;17.80;;
51810;SDS011;52468;40.116;18.296;2023-03-19T01:44:46;25.53;;;17.50;;
51810;SDS011;52468;40.116;18.296;2023-03-19T01:47:41;23.10;;;16.67;;
51810;SDS011;52468;40.116;18.296;2023-03-19T01:50:34;26.57;;;17.63;;
51810;SDS011;52468;40.116;18.296;2023-03-19T01:53:30;29.30;;;17.37;;
51810;SDS011;52468;40.116;18.296;2023-03-19T01:56:32;27.60;;;15.77;;
51810;SDS011;52468;40.116;18.296;2023-03-19T01:59:11;23.87;;;16.60;;
51810;SDS011;52468;40.116;18.296;2023-03-19T02:05:00;26.17;;;14.43;;
51810;SDS011;52468;40.116;18.296;2023-03-19T02:07:30;19.87;;;14.43;;
51810;SDS011;52468;40.116;18.296;2023-03-19T02:10:00;23.20;;;14.87;;
51810;SDS011;52468;40.116;18.296;2023-03-19T02:12:31;20.87;;;14.63;;
51810;SDS011;52468;40.116;18.296;2023-03-19T02:14:59;16.30;;;14.40;;
51810;SDS011;52468;40.116;18.296;2023-03-19T02:17:27;21.87;;;12.97;;
51810;SDS011;52468;40.116;18.296;2023-03-19T02:19:58;18.57;;;12.90;;
51810;SDS011;52468;40.116;18.296;2023-03-19T02:22:34;18.30;;;13.27;;
51810;SDS011;52468;40.116;18.296;2023-03-19T02:28:22;15.13;;;12.23;;
51810;SDS011;52468;40.116;18.296;2023-03-19T02:30:52;21.70;;;14.77;;
51810;SDS011;52468;40.116;18.296;2023-03-19T02:33:20;17.33;;;12.23;;
51810;SDS011;52468;40.116;18.296;2023-03-19T02:35:49;22.57;;;13.90;;
51810;SDS011;52468;40.116;18.296;2023-03-19T02:38:19;17.67;;;11.90;;
51810;SDS011;52468;40.116;18.296;2023-03-19T02:40:58;23.17;;;15.37;;
51810;SDS011;52468;40.116;18.296;2023-03-19T02:43:32;16.47;;;12.63;;
51810;SDS011;52468;40.116;18.296;2023-03-19T02:46:03;19.93;;;13.97;;
51810;SDS011;52468;40.116;18.296;2023-03-19T02:48:34;20.43;;;12.63;;
51810;SDS011;52468;40.116;18.296;2023-03-19T02:51:03;19.23;;;13.80;;
51810;SDS011;52468;40.116;18.296;2023-03-19T02:53:31;20.57;;;13.00;;
51810;SDS011;52468;40.116;18.296;2023-03-19T02:56:01;13.90;;;10.60;;
51810;SDS011;52468;40.116;18.296;2023-03-19T02:58:29;21.20;;;12.97;;
51810;SDS011;52468;40.116;18.296;2023-03-19T03:00:57;17.83;;;12.37;;
51810;SDS011;52468;40.116;18.296;2023-03-19T03:03:25;17.33;;;12.50;;
51810;SDS011;52468;40.116;18.296;2023-03-19T03:05:54;18.97;;;13.10;;
51810;SDS011;52468;40.116;18.296;2023-03-19T03:08:22;20.73;;;13.70;;
51810;SDS011;52468;40.116;18.296;2023-03-19T03:10:49;17.93;;;12.70;;
51810;SDS011;52468;40.116;18.296;2023-03-19T03:13:17;16.93;;;12.57;;
51810;SDS011;52468;40.116;18.296;2023-03-19T03:15:45;21.37;;;13.50;;
51810;SDS011;52468;40.116;18.296;2023-03-19T03:18:13;21.33;;;13.03;;
51810;SDS011;52468;40.116;18.296;2023-03-19T03:20:41;21.13;;;11.43;;
51810;SDS011;52468;40.116;18.296;2023-03-19T03:23:09;20.17;;;13.60;;
51810;SDS011;52468;40.116;18.296;2023-03-19T03:25:38;18.27;;;12.07;;
51810;SDS011;52468;40.116;18.296;2023-03-19T03:28:05;16.13;;;11.33;;
51810;SDS011;52468;40.116;18.296;2023-03-19T03:30:33;17.63;;;12.53;;
51810;SDS011;52468;40.116;18.296;2023-03-19T03:33:02;22.73;;;14.47;;
51810;SDS011;52468;40.116;18.296;2023-03-19T03:35:30;20.00;;;14.87;;
51810;SDS011;52468;40.116;18.296;2023-03-19T03:37:58;23.80;;;14.20;;
51810;SDS011;52468;40.116;18.296;2023-03-19T03:40:26;21.17;;;13.40;;
51810;SDS011;52468;40.116;18.296;2023-03-19T03:42:54;20.07;;;13.83;;
51810;SDS011;52468;40.116;18.296;2023-03-19T03:45:23;21.77;;;13.07;;
51810;SDS011;52468;40.116;18.296;2023-03-19T03:47:52;15.30;;;11.87;;
51810;SDS011;52468;40.116;18.296;2023-03-19T03:50:20;19.60;;;13.73;;
51810;SDS011;52468;40.116;18.296;2023-03-19T03:52:51;18.40;;;13.80;;
51810;SDS011;52468;40.116;18.296;2023-03-19T03:55:19;22.10;;;13.70;;
51810;SDS011;52468;40.116;18.296;2023-03-19T03:57:48;18.73;;;12.33;;
51810;SDS011;52468;40.116;18.296;2023-03-19T04:00:16;16.03;;;11.57;;
51810;SDS011;52468;40.116;18.296;2023-03-19T04:02:45;17.67;;;10.87;;
51810;SDS011;52468;40.116;18.296;2023-03-19T04:05:14;12.77;;;9.83;;
51810;SDS011;52468;40.116;18.296;2023-03-19T04:07:42;17.17;;;11.80;;
51810;SDS011;52468;40.116;18.296;2023-03-19T04:10:11;18.57;;;13.10;;
51810;SDS011;52468;40.116;18.296;2023-03-19T04:12:40;16.97;;;13.67;;
51810;SDS011;52468;40.116;18.296;2023-03-19T04:15:09;16.23;;;12.73;;
51810;SDS011;52468;40.116;18.296;2023-03-19T04:17:39;19.37;;;12.93;;
51810;SDS011;52468;40.116;18.296;2023-03-19T04:20:09;18.63;;;14.43;;
51810;SDS011;52468;40.116;18.296;2023-03-19T04:22:37;19.60;;;13.83;;
51810;SDS011;52468;40.116;18.296;2023-03-19T04:25:05;23.87;;;17.10;;
51810;SDS011;52468;40.116;18.296;2023-03-19T04:27:36;22.23;;;15.40;;
51810;SDS011;52468;40.116;18.296;2023-03-19T04:30:04;22.23;;;15.03;;
51810;SDS011;52468;40.116;18.296;2023-03-19T04:32:32;20.80;;;15.23;;
51810;SDS011;52468;40.116;18.296;2023-03-19T04:35:02;21.83;;;14.60;;
51810;SDS011;52468;40.116;18.296;2023-03-19T04:37:30;20.93;;;15.27;;
51810;SDS011;52468;40.116;18.296;2023-03-19T04:39:58;23.50;;;17.03;;
51810;SDS011;52468;40.116;18.296;2023-03-19T04:42:30;20.60;;;15.37;;
51810;SDS011;52468;40.116;18.296;2023-03-19T04:45:06;26.30;;;16.73;;
51810;SDS011;52468;40.116;18.296;2023-03-19T04:47:34;25.00;;;17.10;;
51810;SDS011;52468;40.116;18.296;2023-03-19T04:50:04;28.03;;;17.57;;
51810;SDS011;52468;40.116;18.296;2023-03-19T04:52:34;25.30;;;16.90;;
51810;SDS011;52468;40.116;18.296;2023-03-19T04:55:05;30.30;;;17.90;;
51810;SDS011;52468;40.116;18.296;2023-03-19T04:57:47;26.27;;;15.80;;
51810;SDS011;52468;40.116;18.296;2023-03-19T05:00:16;23.57;;;16.50;;
51810;SDS011;52468;40.116;18.296;2023-03-19T05:02:46;31.27;;;17.30;;
51810;SDS011;52468;40.116;18.296;2023-03-19T05:05:15;27.93;;;18.23;;
51810;SDS011;52468;40.116;18.296;2023-03-19T05:07:43;26.03;;;18.43;;
51810;SDS011;52468;40.116;18.296;2023-03-19T05:10:10;24.83;;;18.33;;
51810;SDS011;52468;40.116;18.296;2023-03-19T05:12:39;28.60;;;18.17;;
51810;SDS011;52468;40.116;18.296;2023-03-19T05:15:09;23.50;;;16.87;;
51810;SDS011;52468;40.116;18.296;2023-03-19T05:17:43;24.87;;;17.60;;
51810;SDS011;52468;40.116;18.296;2023-03-19T05:20:15;27.93;;;19.60;;
51810;SDS011;52468;40.116;18.296;2023-03-19T05:22:51;29.03;;;17.53;;
51810;SDS011;52468;40.116;18.296;2023-03-19T05:25:23;30.23;;;17.80;;
51810;SDS011;52468;40.116;18.296;2023-03-19T05:27:52;29.47;;;20.30;;
51810;SDS011;52468;40.116;18.296;2023-03-19T05:30:22;26.53;;;18.07;;
51810;SDS011;52468;40.116;18.296;2023-03-19T05:32:50;25.37;;;18.63;;
51810;SDS011;52468;40.116;18.296;2023-03-19T05:35:36;25.63;;;18.87;;
51810;SDS011;52468;40.116;18.296;2023-03-19T05:38:11;26.83;;;17.33;;
51810;SDS011;52468;40.116;18.296;2023-03-19T05:40:41;23.10;;;16.67;;
51810;SDS011;52468;40.116;18.296;2023-03-19T05:43:22;25.90;;;16.23;;
51810;SDS011;52468;40.116;18.296;2023-03-19T05:45:51;29.60;;;18.50;;
51810;SDS011;52468;40.116;18.296;2023-03-19T05:48:24;20.90;;;15.53;;
51810;SDS011;52468;40.116;18.296;2023-03-19T05:50:53;20.03;;;13.37;;
51810;SDS011;52468;40.116;18.296;2023-03-19T05:53:21;22.27;;;13.47;;
51810;SDS011;52468;40.116;18.296;2023-03-19T05:56:13;17.93;;;13.17;;
51810;SDS011;52468;40.116;18.296;2023-03-19T05:58:54;20.83;;;14.00;;
51810;SDS011;52468;40.116;18.296;2023-03-19T06:01:28;15.88;;;12.43;;
51810;SDS011;52468;40.116;18.296;2023-03-19T06:03:58;17.43;;;11.93;;
51810;SDS011;52468;40.116;18.296;2023-03-19T06:06:26;17.33;;;14.07;;
51810;SDS011;52468;40.116;18.296;2023-03-19T06:08:54;17.63;;;11.97;;
51810;SDS011;52468;40.116;18.296;2023-03-19T06:11:33;18.60;;;13.90;;
51810;SDS011;52468;40.116;18.296;2023-03-19T06:14:22;18.23;;;13.13;;
51810;SDS011;52468;40.116;18.296;2023-03-19T06:17:10;22.83;;;13.27;;
51810;SDS011;52468;40.116;18.296;2023-03-19T06:19:38;19.10;;;11.90;;
51810;SDS011;52468;40.116;18.296;2023-03-19T06:22:07;17.67;;;13.30;;
51810;SDS011;52468;40.116;18.296;2023-03-19T06:24:35;18.93;;;13.00;;
51810;SDS011;52468;40.116;18.296;2023-03-19T06:27:03;19.23;;;12.03;;
51810;SDS011;52468;40.116;18.296;2023-03-19T06:29:31;16.30;;;12.63;;
51810;SDS011;52468;40.116;18.296;2023-03-19T06:32:12;17.70;;;12.10;;
51810;SDS011;52468;40.116;18.296;2023-03-19T06:34:41;17.93;;;12.77;;
51810;SDS011;52468;40.116;18.296;2023-03-19T06:37:10;18.43;;;13.57;;
51810;SDS011;52468;40.116;18.296;2023-03-19T06:39:38;26.27;;;15.50;;
51810;SDS011;52468;40.116;18.296;2023-03-19T06:42:06;37.33;;;21.70;;
51810;SDS011;52468;40.116;18.296;2023-03-19T06:44:34;45.00;;;24.00;;
51810;SDS011;52468;40.116;18.296;2023-03-19T06:47:02;36.97;;;26.37;;
51810;SDS011;52468;40.116;18.296;2023-03-19T06:49:34;32.83;;;24.43;;
51810;SDS011;52468;40.116;18.296;2023-03-19T06:52:02;26.93;;;18.80;;
51810;SDS011;52468;40.116;18.296;2023-03-19T06:54:30;19.43;;;14.90;;
51810;SDS011;52468;40.116;18.296;2023-03-19T06:56:58;17.90;;;12.53;;
51810;SDS011;52468;40.116;18.296;2023-03-19T06:59:26;17.17;;;12.50;;
51810;SDS011;52468;40.116;18.296;2023-03-19T07:01:54;12.73;;;10.27;;
51810;SDS011;52468;40.116;18.296;2023-03-19T07:04:22;14.23;;;10.87;;
51810;SDS011;52468;40.116;18.296;2023-03-19T07:06:50;12.30;;;9.77;;
51810;SDS011;52468;40.116;18.296;2023-03-19T07:09:18;14.50;;;10.80;;
51810;SDS011;52468;40.116;18.296;2023-03-19T07:11:46;11.87;;;7.63;;
51810;SDS011;52468;40.116;18.296;2023-03-19T07:14:14;9.70;;;7.27;;
51810;SDS011;52468;40.116;18.296;2023-03-19T07:16:42;6.77;;;5.27;;
51810;SDS011;52468;40.116;18.296;2023-03-19T07:19:09;9.83;;;6.27;;
51810;SDS011;52468;40.116;18.296;2023-03-19T07:21:37;5.77;;;4.60;;
51810;SDS011;52468;40.116;18.296;2023-03-19T07:24:05;9.37;;;5.53;;
51810;SDS011;52468;40.116;18.296;2023-03-19T07:26:33;6.83;;;5.53;;
51810;SDS011;52468;40.116;18.296;2023-03-19T07:29:01;6.07;;;4.57;;
51810;SDS011;52468;40.116;18.296;2023-03-19T07:31:29;4.50;;;3.87;;
51810;SDS011;52468;40.116;18.296;2023-03-19T07:33:57;5.60;;;3.63;;
51810;SDS011;52468;40.116;18.296;2023-03-19T07:36:25;5.90;;;4.00;;
51810;SDS011;52468;40.116;18.296;2023-03-19T07:38:53;8.80;;;4.07;;
51810;SDS011;52468;40.116;18.296;2023-03-19T07:41:20;9.73;;;5.97;;
51810;SDS011;52468;40.116;18.296;2023-03-19T07:43:48;10.87;;;6.57;;
51810;SDS011;52468;40.116;18.296;2023-03-19T07:46:16;5.77;;;4.97;;
51810;SDS011;52468;40.116;18.296;2023-03-19T07:48:44;6.03;;;3.93;;
51810;SDS011;52468;40.116;18.296;2023-03-19T07:51:12;3.53;;;2.90;;
51810;SDS011;52468;40.116;18.296;2023-03-19T07:53:40;5.23;;;2.30;;
51810;SDS011;52468;40.116;18.296;2023-03-19T07:56:08;5.23;;;2.53;;
51810;SDS011;52468;40.116;18.296;2023-03-19T07:58:36;3.10;;;1.97;;
51810;SDS011;52468;40.116;18.296;2023-03-19T08:01:04;3.47;;;2.37;;
51810;SDS011;52468;40.116;18.296;2023-03-19T08:03:33;3.37;;;2.17;;
51810;SDS011;52468;40.116;18.296;2023-03-19T08:06:00;6.50;;;2.50;;
51810;SDS011;52468;40.116;18.296;2023-03-19T08:08:30;3.37;;;2.40;;
51810;SDS011;52468;40.116;18.296;2023-03-19T08:10:57;3.87;;;2.03;;
51810;SDS011;52468;40.116;18.296;2023-03-19T08:13:25;2.90;;;2.33;;
51810;SDS011;52468;40.116;18.296;2023-03-19T08:15:53;4.43;;;2.27;;
51810;SDS011;52468;40.116;18.296;2023-03-19T08:18:22;2.90;;;2.03;;
51810;SDS011;52468;40.116;18.296;2023-03-19T08:20:50;2.50;;;1.80;;
51810;SDS011;52468;40.116;18.296;2023-03-19T08:23:18;1.60;;;1.50;;
51810;SDS011;52468;40.116;18.296;2023-03-19T08:25:47;2.90;;;2.60;;
51810;SDS011;52468;40.116;18.296;2023-03-19T08:28:18;3.37;;;2.43;;
51810;SDS011;52468;40.116;18.296;2023-03-19T08:30:46;2.67;;;1.90;;
51810;SDS011;52468;40.116;18.296;2023-03-19T08:33:14;2.70;;;1.63;;
51810;SDS011;52468;40.116;18.296;2023-03-19T08:35:42;3.73;;;1.63;;
51810;SDS011;52468;40.116;18.296;2023-03-19T08:38:10;2.07;;;1.77;;
51810;SDS011;52468;40.116;18.296;2023-03-19T08:40:38;1.83;;;1.63;;
51810;SDS011;52468;40.116;18.296;2023-03-19T08:43:06;4.67;;;2.10;;
51810;SDS011;52468;40.116;18.296;2023-03-19T08:45:34;3.40;;;1.40;;
51810;SDS011;52468;40.116;18.296;2023-03-19T08:48:02;3.87;;;2.17;;
51810;SDS011;52468;40.116;18.296;2023-03-19T08:50:30;2.80;;;1.63;;
51810;SDS011;52468;40.116;18.296;2023-03-19T08:52:58;2.53;;;1.97;;
51810;SDS011;52468;40.116;18.296;2023-03-19T08:55:28;3.53;;;1.70;;
51810;SDS011;52468;40.116;18.296;2023-03-19T08:57:57;2.90;;;1.83;;
51810;SDS011;52468;40.116;18.296;2023-03-19T09:00:25;2.70;;;2.00;;
51810;SDS011;52468;40.116;18.296;2023-03-19T09:02:54;5.27;;;2.10;;
51810;SDS011;52468;40.116;18.296;2023-03-19T09:05:21;2.37;;;1.67;;
51810;SDS011;52468;40.116;18.296;2023-03-19T09:07:50;2.23;;;2.00;;
51810;SDS011;52468;40.116;18.296;2023-03-19T09:10:19;1.90;;;1.70;;
51810;SDS011;52468;40.116;18.296;2023-03-19T09:12:46;2.73;;;1.97;;
51810;SDS011;52468;40.116;18.296;2023-03-19T09:15:14;2.03;;;1.83;;
51810;SDS011;52468;40.116;18.296;2023-03-19T09:17:43;3.13;;;1.93;;
51810;SDS011;52468;40.116;18.296;2023-03-19T09:20:11;2.83;;;2.30;;
51810;SDS011;52468;40.116;18.296;2023-03-19T09:22:39;3.30;;;2.10;;
51810;SDS011;52468;40.116;18.296;2023-03-19T09:25:07;2.70;;;2.30;;
51810;SDS011;52468;40.116;18.296;2023-03-19T09:27:36;2.70;;;2.07;;
51810;SDS011;52468;40.116;18.296;2023-03-19T09:30:04;1.90;;;1.70;;
51810;SDS011;52468;40.116;18.296;2023-03-19T09:32:36;1.93;;;1.70;;
51810;SDS011;52468;40.116;18.296;2023-03-19T09:35:04;2.23;;;2.03;;
51810;SDS011;52468;40.116;18.296;2023-03-19T09:37:32;2.10;;;1.83;;
51810;SDS011;52468;40.116;18.296;2023-03-19T09:40:00;3.17;;;2.47;;
51810;SDS011;52468;40.116;18.296;2023-03-19T09:45:11;5.33;;;2.20;;
51810;SDS011;52468;40.116;18.296;2023-03-19T09:47:41;2.35;;;1.40;;
51810;SDS011;52468;40.116;18.296;2023-03-19T09:50:15;4.23;;;2.00;;
51810;SDS011;52468;40.116;18.296;2023-03-19T09:55:50;3.27;;;1.90;;
51810;SDS011;52468;40.116;18.296;2023-03-19T09:58:24;4.23;;;2.40;;
51810;SDS011;52468;40.116;18.296;2023-03-19T10:00:58;3.50;;;2.67;;
51810;SDS011;52468;40.116;18.296;2023-03-19T10:09:17;3.33;;;2.30;;
51810;SDS011;52468;40.116;18.296;2023-03-19T10:26:13;4.43;;;3.27;;
51810;SDS011;52468;40.116;18.296;2023-03-19T10:28:44;2.53;;;2.20;;
51810;SDS011;52468;40.116;18.296;2023-03-19T10:31:24;4.97;;;3.03;;
51810;SDS011;52468;40.116;18.296;2023-03-19T10:37:04;4.13;;;2.20;;
51810;SDS011;52468;40.116;18.296;2023-03-19T10:39:34;3.70;;;1.80;;
51810;SDS011;52468;40.116;18.296;2023-03-19T10:44:59;6.07;;;1.80;;
51810;SDS011;52468;40.116;18.296;2023-03-19T10:47:29;3.70;;;2.27;;
51810;SDS011;52468;40.116;18.296;2023-03-19T10:50:05;5.13;;;2.33;;
51810;SDS011;52468;40.116;18.296;2023-03-19T10:52:34;4.00;;;2.57;;
51810;SDS011;52468;40.116;18.296;2023-03-19T10:55:11;3.30;;;2.93;;
51810;SDS011;52468;40.116;18.296;2023-03-19T10:57:41;2.63;;;2.43;;
51810;SDS011;52468;40.116;18.296;2023-03-19T11:00:15;3.57;;;2.93;;
51810;SDS011;52468;40.116;18.296;2023-03-19T11:02:51;3.10;;;2.63;;
51810;SDS011;52468;40.116;18.296;2023-03-19T11:10:32;2.57;;;2.37;;
51810;SDS011;52468;40.116;18.296;2023-03-19T11:13:03;2.20;;;2.00;;
51810;SDS011;52468;40.116;18.296;2023-03-19T11:15:50;3.37;;;1.90;;
51810;SDS011;52468;40.116;18.296;2023-03-19T11:18:22;4.03;;;3.03;;
51810;SDS011;52468;40.116;18.296;2023-03-19T11:20:57;3.58;;;2.05;;
51810;SDS011;52468;40.116;18.296;2023-03-19T11:23:28;9.60;;;2.73;;
51810;SDS011;52468;40.116;18.296;2023-03-19T11:25:59;3.83;;;2.50;;
51810;SDS011;52468;40.116;18.296;2023-03-19T11:28:30;5.30;;;4.60;;
51810;SDS011;52468;40.116;18.296;2023-03-19T11:31:12;5.20;;;3.17;;
51810;SDS011;52468;40.116;18.296;2023-03-19T11:36:30;3.07;;;2.77;;
51810;SDS011;52468;40.116;18.296;2023-03-19T11:39:20;4.13;;;3.37;;
51810;SDS011;52468;40.116;18.296;2023-03-19T11:53:16;4.07;;;2.30;;
51810;SDS011;52468;40.116;18.296;2023-03-19T11:59:11;2.27;;;2.07;;
51810;SDS011;52468;40.116;18.296;2023-03-19T12:07:29;2.80;;;1.73;;
51810;SDS011;52468;40.116;18.296;2023-03-19T12:13:48;3.83;;;2.30;;
51810;SDS011;52468;40.116;18.296;2023-03-19T12:16:26;3.43;;;2.50;;
51810;SDS011;52468;40.116;18.296;2023-03-19T12:19:26;3.63;;;3.03;;
51810;SDS011;52468;40.116;18.296;2023-03-19T12:22:23;4.63;;;1.80;;
51810;SDS011;52468;40.116;18.296;2023-03-19T12:28:00;4.13;;;1.80;;
51810;SDS011;52468;40.116;18.296;2023-03-19T12:36:21;2.47;;;1.90;;
51810;SDS011;52468;40.116;18.296;2023-03-19T12:39:02;3.13;;;1.73;;
51810;SDS011;52468;40.116;18.296;2023-03-19T12:41:38;1.87;;;1.77;;
51810;SDS011;52468;40.116;18.296;2023-03-19T12:46:50;2.53;;;2.27;;
51810;SDS011;52468;40.116;18.296;2023-03-19T12:49:42;2.23;;;1.43;;
51810;SDS011;52468;40.116;18.296;2023-03-19T12:52:53;5.07;;;2.13;;
51810;SDS011;52468;40.116;18.296;2023-03-19T12:57:58;2.00;;;1.50;;
51810;SDS011;52468;40.116;18.296;2023-03-19T13:00:31;1.80;;;1.60;;
51810;SDS011;52468;40.116;18.296;2023-03-19T13:09:32;3.47;;;3.17;;
51810;SDS011;52468;40.116;18.296;2023-03-19T13:12:12;1.90;;;1.80;;
51810;SDS011;52468;40.116;18.296;2023-03-19T13:14:56;2.73;;;2.27;;
51810;SDS011;52468;40.116;18.296;2023-03-19T13:20:27;2.13;;;1.90;;
51810;SDS011;52468;40.116;18.296;2023-03-19T13:23:21;3.43;;;1.90;;
51810;SDS011;52468;40.116;18.296;2023-03-19T13:25:53;2.73;;;1.53;;
51810;SDS011;52468;40.116;18.296;2023-03-19T13:28:28;2.40;;;2.13;;
51810;SDS011;52468;40.116;18.296;2023-03-19T13:34:05;6.70;;;3.43;;
51810;SDS011;52468;40.116;18.296;2023-03-19T13:36:52;4.47;;;3.50;;
51810;SDS011;52468;40.116;18.296;2023-03-19T13:39:40;3.58;;;2.00;;
51810;SDS011;52468;40.116;18.296;2023-03-19T13:52:45;3.97;;;1.97;;
51810;SDS011;52468;40.116;18.296;2023-03-19T13:55:30;6.17;;;4.80;;
51810;SDS011;52468;40.116;18.296;2023-03-19T14:03:54;5.23;;;3.50;;
51810;SDS011;52468;40.116;18.296;2023-03-19T14:06:03;2.53;;;1.83;;
51810;SDS011;52468;40.116;18.296;2023-03-19T14:08:32;7.93;;;4.93;;
51810;SDS011;52468;40.116;18.296;2023-03-19T14:11:20;2.73;;;2.30;;
51810;SDS011;52468;40.116;18.296;2023-03-19T14:13:55;12.23;;;7.23;;
51810;SDS011;52468;40.116;18.296;2023-03-19T14:16:35;3.03;;;2.00;;
51810;SDS011;52468;40.116;18.296;2023-03-19T14:19:11;4.27;;;3.47;;
51810;SDS011;52468;40.116;18.296;2023-03-19T14:22:01;11.37;;;7.63;;
51810;SDS011;52468;40.116;18.296;2023-03-19T14:24:37;4.13;;;2.23;;
51810;SDS011;52468;40.116;18.296;2023-03-19T14:27:31;3.07;;;2.13;;
51810;SDS011;52468;40.116;18.296;2023-03-19T14:30:10;3.40;;;2.40;;
51810;SDS011;52468;40.116;18.296;2023-03-19T14:33:01;3.90;;;2.00;;
51810;SDS011;52468;40.116;18.296;2023-03-19T14:35:31;2.97;;;2.00;;
51810;SDS011;52468;40.116;18.296;2023-03-19T14:38:00;4.20;;;3.03;;
51810;SDS011;52468;40.116;18.296;2023-03-19T14:42:59;4.13;;;3.73;;
51810;SDS011;52468;40.116;18.296;2023-03-19T14:48:16;6.10;;;3.53;;
51810;SDS011;52468;40.116;18.296;2023-03-19T14:53:43;3.03;;;2.63;;
51810;SDS011;52468;40.116;18.296;2023-03-19T14:56:39;3.23;;;2.13;;
51810;SDS011;52468;40.116;18.296;2023-03-19T14:59:10;2.23;;;1.83;;
51810;SDS011;52468;40.116;18.296;2023-03-19T15:01:40;2.05;;;1.92;;
51810;SDS011;52468;40.116;18.296;2023-03-19T15:04:15;2.30;;;1.97;;
51810;SDS011;52468;40.116;18.296;2023-03-19T15:06:46;6.47;;;3.37;;
51810;SDS011;52468;40.116;18.296;2023-03-19T15:09:25;3.30;;;2.30;;
51810;SDS011;52468;40.116;18.296;2023-03-19T15:19:45;4.60;;;4.27;;
51810;SDS011;52468;40.116;18.296;2023-03-19T15:22:20;6.90;;;6.00;;
51810;SDS011;52468;40.116;18.296;2023-03-19T15:24:52;7.90;;;5.20;;
51810;SDS011;52468;40.116;18.296;2023-03-19T15:27:21;5.03;;;3.93;;
51810;SDS011;52468;40.116;18.296;2023-03-19T15:29:51;2.53;;;1.90;;
51810;SDS011;52468;40.116;18.296;2023-03-19T15:32:29;3.33;;;2.70;;
51810;SDS011;52468;40.116;18.296;2023-03-19T15:35:17;4.47;;;3.53;;
51810;SDS011;52468;40.116;18.296;2023-03-19T15:37:48;8.90;;;5.57;;
51810;SDS011;52468;40.116;18.296;2023-03-19T15:40:22;5.03;;;3.33;;
51810;SDS011;52468;40.116;18.296;2023-03-19T15:42:54;2.30;;;1.80;;
51810;SDS011;52468;40.116;18.296;2023-03-19T15:45:29;4.03;;;2.70;;
51810;SDS011;52468;40.116;18.296;2023-03-19T15:48:01;3.37;;;3.00;;
51810;SDS011;52468;40.116;18.296;2023-03-19T15:50:34;2.47;;;1.75;;
51810;SDS011;52468;40.116;18.296;2023-03-19T15:53:05;5.03;;;3.30;;
51810;SDS011;52468;40.116;18.296;2023-03-19T15:55:37;2.73;;;2.33;;
51810;SDS011;52468;40.116;18.296;2023-03-19T15:58:10;3.30;;;2.20;;
51810;SDS011;52468;40.116;18.296;2023-03-19T16:00:42;2.10;;;1.90;;
51810;SDS011;52468;40.116;18.296;2023-03-19T16:03:14;3.43;;;1.80;;
51810;SDS011;52468;40.116;18.296;2023-03-19T16:05:44;3.57;;;2.63;;
51810;SDS011;52468;40.116;18.296;2023-03-19T16:08:26;5.75;;;2.55;;
51810;SDS011;52468;40.116;18.296;2023-03-19T16:11:10;3.17;;;2.80;;
51810;SDS011;52468;40.116;18.296;2023-03-19T16:13:44;5.27;;;2.80;;
51810;SDS011;52468;40.116;18.296;2023-03-19T16:16:20;4.83;;;2.50;;
51810;SDS011;52468;40.116;18.296;2023-03-19T16:18:54;3.90;;;2.00;;
51810;SDS011;52468;40.116;18.296;2023-03-19T16:21:33;3.20;;;2.00;;
51810;SDS011;52468;40.116;18.296;2023-03-19T16:26:40;2.70;;;1.83;;
51810;SDS011;52468;40.116;18.296;2023-03-19T16:29:19;3.07;;;2.73;;
51810;SDS011;52468;40.116;18.296;2023-03-19T16:31:59;4.33;;;2.10;;
51810;SDS011;52468;40.116;18.296;2023-03-19T16:34:30;3.17;;;2.10;;
51810;SDS011;52468;40.116;18.296;2023-03-19T16:37:01;2.33;;;1.90;;
51810;SDS011;52468;40.116;18.296;2023-03-19T16:39:53;3.33;;;1.90;;
51810;SDS011;52468;40.116;18.296;2023-03-19T16:47:46;4.15;;;2.88;;
51810;SDS011;52468;40.116;18.296;2023-03-19T16:50:16;6.70;;;2.67;;
51810;SDS011;52468;40.116;18.296;2023-03-19T16:52:46;4.00;;;2.77;;
51810;SDS011;52468;40.116;18.296;2023-03-19T16:55:21;4.13;;;3.17;;
51810;SDS011;52468;40.116;18.296;2023-03-19T17:00:54;4.93;;;3.40;;
51810;SDS011;52468;40.116;18.296;2023-03-19T17:03:22;6.30;;;4.17;;
51810;SDS011;52468;40.116;18.296;2023-03-19T17:05:52;6.13;;;3.97;;
51810;SDS011;52468;40.116;18.296;2023-03-19T17:08:19;8.00;;;4.67;;
51810;SDS011;52468;40.116;18.296;2023-03-19T17:10:49;170.40;;;100.07;;